createdAt,value
2023-05-17T00:00:11.040Z,40.40
2023-05-17T00:01:11.076Z,36.83
2023-05-17T00:02:11.173Z,33.38
2023-05-17T00:03:11.279Z,37.16
2023-05-17T00:04:11.304Z,32.06
2023-05-17T00:05:11.367Z,28.55
2023-05-17T00:06:11.457Z,33.18
2023-05-17T00:07:11.444Z,34.44
2023-05-17T00:08:11.525Z,37.22
2023-05-17T00:09:11.533Z,40.19
2023-05-17T00:10:11.600Z,39.79
2023-05-17T00:11:11.662Z,37.99
2023-05-17T00:12:11.793Z,33.19
2023-05-17T00:13:11.785Z,39.18
2023-05-17T00:14:11.826Z,37.78
2023-05-17T00:15:11.904Z,31.86
2023-05-17T00:16:11.975Z,32.43
2023-05-17T00:17:12.060Z,34.02
2023-05-17T00:18:12.156Z,40.08
2023-05-17T00:19:12.246Z,34.27
2023-05-17T00:20:12.166Z,35.91
2023-05-17T00:21:12.359Z,33.89
2023-05-17T00:22:12.234Z,37.33
2023-05-17T00:23:12.263Z,39.07
2023-05-17T00:24:12.240Z,36.66
2023-05-17T00:25:12.260Z,35.94
2023-05-17T00:26:12.256Z,36.20
2023-05-17T00:27:12.280Z,37.16
2023-05-17T00:28:12.294Z,37.87
2023-05-17T00:29:12.300Z,36.80
2023-05-17T00:30:12.297Z,46.13
2023-05-17T00:31:12.327Z,48.03
2023-05-17T00:32:12.342Z,49.50
2023-05-17T00:33:12.347Z,38.00
2023-05-17T00:34:12.339Z,46.01
2023-05-17T00:35:12.397Z,44.47
2023-05-17T00:36:12.353Z,42.32
2023-05-17T00:37:12.425Z,38.84
2023-05-17T00:38:12.421Z,39.13
2023-05-17T00:39:12.395Z,47.83
2023-05-17T00:40:12.398Z,38.95
2023-05-17T00:41:12.412Z,41.85
2023-05-17T00:42:12.431Z,36.65
2023-05-17T00:43:12.451Z,39.52
2023-05-17T00:44:12.454Z,33.24
2023-05-17T00:45:12.469Z,37.05
2023-05-17T00:46:12.482Z,40.23
2023-05-17T00:47:12.556Z,39.55
2023-05-17T00:48:12.784Z,37.83
2023-05-17T00:49:12.633Z,39.60
2023-05-17T00:50:12.689Z,38.26
2023-05-17T00:51:12.749Z,41.01
2023-05-17T00:52:12.810Z,39.39
2023-05-17T00:53:12.871Z,47.50
2023-05-17T00:54:12.940Z,43.70
2023-05-17T00:55:13.092Z,46.03
2023-05-17T00:56:13.183Z,49.44
2023-05-17T00:57:13.177Z,47.47
2023-05-17T00:58:13.204Z,44.48
2023-05-17T00:59:13.207Z,43.21
2023-05-17T01:00:13.221Z,42.39
2023-05-17T01:01:13.232Z,41.93
2023-05-17T01:02:13.262Z,41.75
2023-05-17T01:03:13.395Z,41.30
2023-05-17T01:04:13.551Z,44.62
2023-05-17T01:05:13.284Z,45.05
2023-05-17T01:06:13.318Z,50.14
2023-05-17T01:07:13.345Z,47.67
2023-05-17T01:08:13.364Z,46.68
2023-05-17T01:09:13.532Z,44.73
2023-05-17T01:10:13.562Z,41.12
2023-05-17T01:11:13.572Z,44.23
2023-05-17T01:12:13.558Z,45.49
2023-05-17T01:13:13.627Z,47.81
2023-05-17T01:14:13.609Z,52.79
2023-05-17T01:15:13.626Z,52.85
2023-05-17T01:16:13.695Z,56.05
2023-05-17T01:17:13.736Z,58.68
2023-05-17T01:18:13.838Z,53.85
2023-05-17T01:19:13.882Z,52.60
2023-05-17T01:20:13.954Z,50.31
2023-05-17T01:21:13.908Z,56.17
2023-05-17T01:22:13.982Z,50.49
2023-05-17T01:23:14.063Z,51.40
2023-05-17T01:24:14.128Z,50.05
2023-05-17T01:25:14.193Z,50.27
2023-05-17T01:26:14.144Z,50.44
2023-05-17T01:27:14.192Z,50.76
2023-05-17T01:28:14.173Z,52.53
2023-05-17T01:29:14.196Z,56.61
2023-05-17T01:30:14.194Z,59.11
2023-05-17T01:31:14.208Z,57.64
2023-05-17T01:32:14.234Z,58.52
2023-05-17T01:33:14.329Z,54.12
2023-05-17T01:34:14.257Z,50.61
2023-05-17T01:35:14.257Z,50.84
2023-05-17T01:36:14.260Z,50.98
2023-05-17T01:37:14.290Z,51.67
2023-05-17T01:38:14.282Z,53.38
2023-05-17T01:39:14.317Z,55.20
2023-05-17T01:40:14.323Z,55.85
2023-05-17T01:41:14.343Z,54.66
2023-05-17T01:42:14.377Z,53.94
2023-05-17T01:43:14.347Z,48.59
2023-05-17T01:44:14.358Z,52.80
2023-05-17T01:45:14.392Z,61.03
2023-05-17T01:46:14.401Z,62.14
2023-05-17T01:47:14.419Z,57.67
2023-05-17T01:48:14.462Z,58.18
2023-05-17T01:49:14.439Z,54.46
2023-05-17T01:50:14.478Z,50.37
2023-05-17T01:51:14.547Z,59.62
2023-05-17T01:52:14.483Z,58.67
2023-05-17T01:53:14.514Z,55.10
2023-05-17T01:54:14.558Z,55.26
2023-05-17T01:55:14.613Z,54.66
2023-05-17T01:56:14.685Z,60.06
2023-05-17T01:57:14.815Z,60.99
2023-05-17T01:58:14.809Z,57.59
2023-05-17T01:59:14.868Z,57.13
2023-05-17T02:00:14.945Z,51.05
2023-05-17T02:01:14.984Z,54.52
2023-05-17T02:02:15.052Z,56.23
2023-05-17T02:03:15.118Z,60.48
2023-05-17T02:04:15.221Z,60.62
2023-05-17T02:05:15.156Z,55.03
2023-05-17T02:06:15.158Z,51.78
2023-05-17T02:07:15.186Z,51.25
2023-05-17T02:08:15.344Z,46.25
2023-05-17T02:09:15.270Z,52.15
2023-05-17T02:10:15.262Z,58.05
2023-05-17T02:11:15.270Z,57.43
2023-05-17T02:12:15.280Z,56.76
2023-05-17T02:13:15.349Z,54.36
2023-05-17T02:14:15.293Z,53.15
2023-05-17T02:15:15.355Z,52.90
2023-05-17T02:16:15.438Z,49.96
2023-05-17T02:17:15.551Z,51.73
2023-05-17T02:18:15.734Z,50.57
2023-05-17T02:19:15.700Z,53.35
2023-05-17T02:20:15.779Z,53.36
2023-05-17T02:21:15.846Z,57.77
2023-05-17T02:22:15.941Z,52.78
2023-05-17T02:23:15.998Z,51.24
2023-05-17T02:24:16.087Z,52.74
2023-05-17T02:25:16.158Z,52.71
2023-05-17T02:26:16.310Z,49.90
2023-05-17T02:27:16.325Z,52.10
2023-05-17T02:28:16.392Z,53.03
2023-05-17T02:29:16.490Z,53.13
2023-05-17T02:30:17.996Z,52.52
2023-05-17T02:31:16.478Z,53.23
2023-05-17T02:32:16.510Z,53.10
2023-05-17T02:33:16.671Z,53.65
2023-05-17T02:34:16.534Z,54.52
2023-05-17T02:35:16.566Z,55.24
2023-05-17T02:36:16.575Z,55.52
2023-05-17T02:37:16.600Z,56.20
2023-05-17T02:38:16.619Z,55.06
2023-05-17T02:39:16.680Z,58.06
2023-05-17T02:40:16.676Z,48.09
2023-05-17T02:41:16.721Z,51.16
2023-05-17T02:42:16.804Z,46.19
2023-05-17T02:43:16.863Z,47.80
2023-05-17T02:44:16.922Z,50.23
2023-05-17T02:45:17.068Z,47.84
2023-05-17T02:46:17.054Z,45.11
2023-05-17T02:47:17.160Z,41.29
2023-05-17T02:48:17.237Z,39.51
2023-05-17T02:49:17.242Z,45.16
2023-05-17T02:50:17.305Z,47.23
2023-05-17T02:51:17.379Z,46.58
2023-05-17T02:52:17.437Z,47.16
2023-05-17T02:53:17.494Z,46.86
2023-05-17T02:54:17.550Z,40.00
2023-05-17T02:55:17.620Z,37.93
2023-05-17T02:56:17.708Z,42.43
2023-05-17T02:57:17.765Z,43.27
2023-05-17T02:58:17.811Z,40.23
2023-05-17T02:59:17.836Z,42.55
2023-05-17T03:00:17.923Z,43.93
2023-05-17T03:01:18.033Z,43.09
2023-05-17T03:02:18.032Z,47.82
2023-05-17T03:03:18.183Z,45.76
2023-05-17T03:04:18.020Z,44.04
2023-05-17T03:05:18.015Z,38.43
2023-05-17T03:06:18.080Z,39.67
2023-05-17T03:07:18.115Z,36.71
2023-05-17T03:08:18.126Z,38.69
2023-05-17T03:09:18.160Z,43.33
2023-05-17T03:10:18.206Z,36.74
2023-05-17T03:11:18.243Z,38.70
2023-05-17T03:12:18.272Z,41.19
2023-05-17T03:13:18.303Z,46.30
2023-05-17T03:14:18.362Z,41.04
2023-05-17T03:15:18.364Z,41.21
2023-05-17T03:16:18.410Z,37.74
2023-05-17T03:17:18.503Z,38.21
2023-05-17T03:18:18.554Z,38.44
2023-05-17T03:19:18.577Z,34.89
2023-05-17T03:20:18.503Z,39.47
2023-05-17T03:21:18.557Z,40.71
2023-05-17T03:22:18.552Z,40.34
2023-05-17T03:23:18.618Z,41.29
2023-05-17T03:24:18.607Z,33.63
2023-05-17T03:25:18.626Z,40.00
2023-05-17T03:26:18.617Z,34.90
2023-05-17T03:27:18.676Z,32.04
2023-05-17T03:28:18.658Z,35.89
2023-05-17T03:29:18.698Z,33.05
2023-05-17T03:30:18.759Z,32.36
2023-05-17T03:31:18.773Z,31.17
2023-05-17T03:32:18.806Z,34.75
2023-05-17T03:33:18.995Z,37.97
2023-05-17T03:34:18.843Z,34.04
2023-05-17T03:35:18.867Z,39.00
2023-05-17T03:36:18.879Z,47.24
2023-05-17T03:37:18.924Z,44.14
2023-05-17T03:38:18.923Z,35.24
2023-05-17T03:39:18.946Z,35.41
2023-05-17T03:40:18.978Z,32.60
2023-05-17T03:41:18.992Z,31.75
2023-05-17T03:42:19.022Z,29.40
2023-05-17T03:43:19.020Z,29.36
2023-05-17T03:44:19.056Z,30.71
2023-05-17T03:45:19.071Z,32.79
2023-05-17T03:46:19.100Z,30.49
2023-05-17T03:47:19.131Z,30.26
2023-05-17T03:48:19.201Z,35.44
2023-05-17T03:49:19.285Z,33.75
2023-05-17T03:50:19.194Z,31.02
2023-05-17T03:51:19.215Z,34.41
2023-05-17T03:52:19.254Z,34.38
2023-05-17T03:53:19.270Z,39.56
2023-05-17T03:54:19.299Z,32.30
2023-05-17T03:55:19.318Z,34.23
2023-05-17T03:56:19.330Z,30.32
2023-05-17T03:57:19.351Z,27.36
2023-05-17T03:58:19.402Z,27.49
2023-05-17T03:59:19.388Z,30.92
2023-05-17T04:00:19.397Z,33.11
2023-05-17T04:01:19.424Z,37.49
2023-05-17T04:02:19.461Z,31.64
2023-05-17T04:03:20.315Z,29.08
2023-05-17T04:04:19.565Z,34.32
2023-05-17T04:05:19.704Z,29.47
2023-05-17T04:06:19.503Z,26.21
2023-05-17T04:07:19.555Z,25.74
2023-05-17T04:08:19.563Z,28.94
2023-05-17T04:09:19.578Z,26.23
2023-05-17T04:10:19.617Z,29.15
2023-05-17T04:11:19.620Z,28.02
2023-05-17T04:12:19.622Z,29.54
2023-05-17T04:13:19.668Z,29.70
2023-05-17T04:14:19.674Z,26.59
2023-05-17T04:15:20.779Z,30.07
2023-05-17T04:16:19.689Z,35.97
2023-05-17T04:17:19.714Z,37.61
2023-05-17T04:18:19.858Z,34.92
2023-05-17T04:19:19.829Z,35.02
2023-05-17T04:20:19.755Z,34.55
2023-05-17T04:21:19.838Z,33.38
2023-05-17T04:22:19.789Z,35.47
2023-05-17T04:23:19.794Z,36.56
2023-05-17T04:24:19.809Z,32.36
2023-05-17T04:25:19.813Z,27.72
2023-05-17T04:26:19.840Z,28.21
2023-05-17T04:27:19.852Z,25.37
2023-05-17T04:28:19.832Z,28.73
2023-05-17T04:29:19.882Z,30.23
2023-05-17T04:30:19.845Z,27.77
2023-05-17T04:31:19.873Z,26.87
2023-05-17T04:32:19.898Z,29.12
2023-05-17T04:33:20.012Z,26.98
2023-05-17T04:34:19.896Z,33.48
2023-05-17T04:35:19.931Z,29.12
2023-05-17T04:36:19.931Z,34.83
2023-05-17T04:37:20.030Z,35.57
2023-05-17T04:38:19.970Z,41.19
2023-05-17T04:39:19.970Z,43.36
2023-05-17T04:40:20.005Z,45.53
2023-05-17T04:41:20.024Z,43.94
2023-05-17T04:42:20.027Z,45.21
2023-05-17T04:43:20.009Z,56.10
2023-05-17T04:44:20.045Z,63.63
2023-05-17T04:45:20.049Z,65.07
2023-05-17T04:46:20.046Z,69.86
2023-05-17T04:47:20.102Z,73.40
2023-05-17T04:48:20.202Z,77.58
2023-05-17T04:49:20.091Z,80.53
2023-05-17T04:50:20.093Z,85.30
2023-05-17T04:51:20.106Z,86.17
2023-05-17T04:52:20.274Z,86.93
2023-05-17T04:53:20.221Z,90.64
2023-05-17T04:54:20.168Z,99.65
2023-05-17T04:55:20.162Z,102.04
2023-05-17T04:56:20.178Z,103.34
2023-05-17T04:57:20.180Z,107.76
2023-05-17T04:58:20.197Z,108.77
2023-05-17T04:59:20.215Z,117.12
2023-05-17T05:00:20.263Z,117.42
2023-05-17T05:01:20.236Z,123.81
2023-05-17T05:02:20.266Z,124.08
2023-05-17T05:03:20.288Z,125.79
2023-05-17T05:04:20.342Z,127.90
2023-05-17T05:05:20.305Z,130.10
2023-05-17T05:06:20.301Z,128.51
2023-05-17T05:07:20.311Z,126.23
2023-05-17T05:08:20.345Z,128.86
2023-05-17T05:09:20.346Z,132.88
2023-05-17T05:10:20.356Z,133.35
2023-05-17T05:11:20.365Z,136.04
2023-05-17T05:12:20.392Z,139.10
2023-05-17T05:13:20.399Z,137.39
2023-05-17T05:14:20.404Z,140.97
2023-05-17T05:15:20.437Z,143.02
2023-05-17T05:16:20.471Z,146.40
2023-05-17T05:17:20.504Z,146.15
2023-05-17T05:18:20.573Z,146.11
2023-05-17T05:19:20.610Z,148.72
2023-05-17T05:20:20.569Z,149.38
2023-05-17T05:21:20.599Z,151.83
2023-05-17T05:22:20.617Z,149.37
2023-05-17T05:23:20.648Z,149.18
2023-05-17T05:24:20.739Z,149.12
2023-05-17T05:25:20.773Z,151.61
2023-05-17T05:26:20.730Z,149.82
2023-05-17T05:27:20.749Z,152.36
2023-05-17T05:28:20.835Z,156.04
2023-05-17T05:29:20.817Z,155.27
2023-05-17T05:30:20.854Z,155.71
2023-05-17T05:31:20.892Z,156.77
2023-05-17T05:32:20.908Z,159.93
2023-05-17T05:33:21.001Z,159.97
2023-05-17T05:34:20.932Z,160.03
2023-05-17T05:35:20.989Z,162.83
2023-05-17T05:36:20.962Z,161.11
2023-05-17T05:37:20.968Z,166.46
2023-05-17T05:38:20.990Z,162.01
2023-05-17T05:39:20.981Z,170.06
2023-05-17T05:40:20.990Z,191.27
2023-05-17T05:41:21.067Z,163.70
2023-05-17T05:42:21.039Z,178.50
2023-05-17T05:43:21.033Z,205.46
2023-05-17T05:44:21.077Z,245.72
2023-05-17T05:45:21.041Z,299.58
2023-05-17T05:46:21.071Z,246.17
2023-05-17T05:47:21.366Z,250.00
2023-05-17T05:49:40.175Z,25.00
2023-05-17T05:50:40.170Z,25.00
2023-05-17T05:51:40.141Z,25.00
2023-05-17T05:52:40.136Z,25.00
2023-05-17T05:53:40.115Z,25.00
2023-05-17T05:54:40.103Z,30.70
2023-05-17T05:55:40.114Z,33.11
2023-05-17T05:56:40.086Z,39.84
2023-05-17T05:57:40.085Z,42.11
2023-05-17T05:58:40.084Z,42.59
2023-05-17T05:59:40.091Z,44.42
2023-05-17T06:00:40.117Z,48.62
2023-05-17T06:01:40.050Z,55.60
2023-05-17T06:02:40.065Z,72.37
2023-05-17T06:03:40.040Z,80.01
2023-05-17T06:04:45.267Z,86.28
2023-05-17T06:05:41.106Z,86.60
2023-05-17T06:06:40.121Z,88.04
2023-05-17T06:07:39.988Z,87.01
2023-05-17T06:08:40.120Z,89.95
2023-05-17T06:09:39.958Z,96.24
2023-05-17T06:10:39.936Z,105.58
2023-05-17T06:11:39.945Z,120.43
2023-05-17T06:12:40.051Z,121.40
2023-05-17T06:13:39.949Z,126.95
2023-05-17T06:14:39.925Z,129.49
2023-05-17T06:15:39.905Z,136.54
2023-05-17T06:16:40.034Z,136.80
2023-05-17T06:17:39.999Z,137.68
2023-05-17T06:18:39.990Z,140.83
2023-05-17T06:19:40.001Z,144.37
2023-05-17T06:20:39.874Z,152.01
2023-05-17T06:21:39.857Z,154.15
2023-05-17T06:22:39.857Z,156.47
2023-05-17T06:23:39.888Z,156.72
2023-05-17T06:24:39.827Z,156.88
2023-05-17T06:25:39.797Z,155.44
2023-05-17T06:26:39.809Z,152.68
2023-05-17T06:27:39.792Z,155.14
2023-05-17T06:28:39.845Z,155.27
2023-05-17T06:29:39.769Z,157.36
2023-05-17T06:30:39.740Z,154.37
2023-05-17T06:31:39.726Z,153.78
2023-05-17T06:32:39.756Z,155.26
2023-05-17T06:33:39.749Z,151.64
2023-05-17T06:34:39.690Z,151.88
2023-05-17T06:35:51.707Z,152.08
2023-05-17T06:36:40.909Z,151.86
2023-05-17T06:37:39.664Z,151.70
2023-05-17T06:38:39.628Z,150.35
2023-05-17T06:39:40.085Z,147.39
2023-05-17T06:40:39.594Z,147.47
2023-05-17T06:41:39.583Z,142.61
2023-05-17T06:42:39.612Z,145.51
2023-05-17T06:43:39.545Z,155.17
2023-05-17T06:44:39.750Z,157.82
2023-05-17T06:45:39.503Z,158.52
2023-05-17T06:46:39.485Z,149.36
2023-05-17T06:47:39.547Z,151.59
2023-05-17T06:48:39.592Z,159.99
2023-05-17T06:49:39.447Z,162.47
2023-05-17T06:50:40.364Z,169.72
2023-05-17T06:51:39.486Z,169.74
2023-05-17T06:52:39.428Z,168.07
2023-05-17T06:53:39.407Z,168.22
2023-05-17T06:54:39.393Z,168.29
2023-05-17T06:55:39.385Z,167.05
2023-05-17T06:56:39.348Z,168.26
2023-05-17T06:57:39.374Z,165.67
2023-05-17T06:58:39.325Z,162.81
2023-05-17T06:59:39.302Z,151.66
2023-05-17T07:00:39.372Z,148.24
2023-05-17T07:01:39.318Z,138.56
2023-05-17T07:02:39.328Z,131.99
2023-05-17T07:03:39.377Z,128.31
2023-05-17T07:04:39.332Z,125.02
2023-05-17T07:05:39.220Z,121.36
2023-05-17T07:06:39.247Z,119.04
2023-05-17T07:07:39.198Z,114.74
2023-05-17T07:08:39.178Z,114.17
2023-05-17T07:09:39.216Z,115.18
2023-05-17T07:10:39.407Z,118.14
2023-05-17T07:11:39.158Z,122.74
2023-05-17T07:12:39.149Z,119.73
2023-05-17T07:13:39.189Z,117.80
2023-05-17T07:14:39.104Z,115.34
2023-05-17T07:15:39.109Z,115.12
2023-05-17T07:16:39.157Z,112.53
2023-05-17T07:17:39.164Z,111.89
2023-05-17T07:18:39.919Z,109.73
2023-05-17T07:19:39.151Z,108.15
2023-05-17T07:20:39.142Z,94.37
2023-05-17T07:21:39.051Z,96.02
2023-05-17T07:22:39.024Z,98.95
2023-05-17T07:23:39.031Z,105.99
2023-05-17T07:24:38.994Z,118.31
2023-05-17T07:25:39.911Z,136.81
2023-05-17T07:26:39.045Z,141.06
2023-05-17T07:27:39.169Z,140.44
2023-05-17T07:28:39.043Z,137.74
2023-05-17T07:29:39.064Z,133.35
2023-05-17T07:30:38.900Z,129.85
2023-05-17T07:31:38.903Z,129.65
2023-05-17T07:32:38.983Z,127.01
2023-05-17T07:33:38.864Z,113.53
2023-05-17T07:34:38.884Z,115.09
2023-05-17T07:35:38.845Z,117.18
2023-05-17T07:36:38.925Z,119.58
2023-05-17T07:37:39.492Z,125.77
2023-05-17T07:38:38.873Z,130.31
2023-05-17T07:39:38.773Z,135.86
2023-05-17T07:40:38.745Z,125.46
2023-05-17T07:41:38.739Z,118.92
2023-05-17T07:42:38.711Z,109.76
2023-05-17T07:43:38.746Z,115.54
2023-05-17T07:44:38.681Z,110.22
2023-05-17T07:45:38.693Z,100.49
2023-05-17T07:46:38.706Z,102.99
2023-05-17T07:47:38.847Z,97.88
2023-05-17T07:48:38.794Z,99.18
2023-05-17T07:49:38.656Z,98.54
2023-05-17T07:50:38.634Z,101.12
2023-05-17T07:51:39.002Z,102.32
2023-05-17T07:52:38.560Z,99.97
2023-05-17T07:53:38.604Z,92.71
2023-05-17T07:54:38.532Z,84.72
2023-05-17T07:55:38.533Z,82.01
2023-05-17T07:56:38.529Z,81.41
2023-05-17T07:57:38.592Z,84.25
2023-05-17T07:58:38.668Z,88.14
2023-05-17T07:59:38.711Z,91.40
2023-05-17T08:00:38.752Z,93.82
2023-05-17T08:01:38.849Z,96.63
2023-05-17T08:02:38.944Z,96.32
2023-05-17T08:03:38.915Z,96.47
2023-05-17T08:04:38.970Z,94.06
2023-05-17T08:05:38.945Z,95.18
2023-05-17T08:06:38.930Z,97.16
2023-05-17T08:07:38.963Z,95.67
2023-05-17T08:08:39.027Z,84.37
2023-05-17T08:09:39.199Z,84.35
2023-05-17T08:10:39.096Z,90.75
2023-05-17T08:11:39.139Z,81.57
2023-05-17T08:12:39.167Z,80.45
2023-05-17T08:13:40.931Z,74.96
2023-05-17T08:14:39.244Z,72.80
2023-05-17T08:15:39.310Z,74.79
2023-05-17T08:16:39.363Z,82.95
2023-05-17T08:17:39.468Z,81.87
2023-05-17T08:18:39.583Z,82.31
2023-05-17T08:19:39.549Z,82.70
2023-05-17T08:20:39.470Z,82.84
2023-05-17T08:21:39.296Z,77.22
2023-05-17T08:22:39.256Z,74.98
2023-05-17T08:23:39.287Z,69.76
2023-05-17T08:24:39.225Z,73.94
2023-05-17T08:25:39.223Z,71.82
2023-05-17T08:26:39.161Z,79.79
2023-05-17T08:27:39.166Z,84.26
2023-05-17T08:28:39.165Z,83.87
2023-05-17T08:29:39.753Z,81.43
2023-05-17T08:30:39.268Z,80.60
2023-05-17T08:31:39.448Z,87.92
2023-05-17T08:32:39.408Z,91.07
2023-05-17T08:33:39.422Z,93.03
2023-05-17T08:34:39.406Z,93.45
2023-05-17T08:35:39.420Z,74.25
2023-05-17T08:36:39.492Z,0.00
2023-05-17T08:37:39.458Z,0.00
2023-05-17T08:38:39.512Z,0.00
2023-05-17T08:39:39.426Z,0.00
2023-05-17T08:40:39.426Z,0.00
2023-05-17T08:41:39.400Z,0.00
2023-05-17T08:42:39.432Z,0.00
2023-05-17T08:43:39.476Z,0.00
2023-05-17T08:44:39.393Z,0.00
2023-05-17T08:45:39.389Z,0.00
2023-05-17T08:46:39.370Z,0.00
2023-05-17T08:47:39.485Z,0.00
2023-05-17T08:48:39.405Z,0.00
2023-05-17T08:49:39.952Z,0.00
2023-05-17T08:50:39.343Z,0.00
2023-05-17T08:51:39.348Z,0.00
2023-05-17T08:52:39.341Z,0.00
2023-05-17T08:53:40.020Z,0.00
2023-05-17T08:54:39.317Z,27.16
2023-05-17T08:55:39.543Z,30.08
2023-05-17T08:56:39.300Z,48.59
2023-05-17T08:57:40.908Z,66.80
2023-05-17T08:58:52.273Z,74.95
2023-05-17T08:59:40.291Z,75.24
2023-05-17T09:00:39.233Z,77.16
2023-05-17T09:01:39.290Z,81.20
2023-05-17T09:02:39.320Z,85.29
2023-05-17T09:03:39.386Z,101.41
2023-05-17T09:04:39.202Z,117.28
2023-05-17T09:05:39.442Z,127.56
2023-05-17T09:06:39.163Z,137.32
2023-05-17T09:07:39.177Z,147.94
2023-05-17T09:08:39.430Z,157.87
2023-05-17T09:09:39.147Z,174.23
2023-05-17T09:10:39.181Z,180.53
2023-05-17T09:11:39.205Z,185.82
2023-05-17T09:12:39.233Z,192.74
2023-05-17T09:13:39.539Z,196.34
2023-05-17T09:14:39.292Z,201.66
2023-05-17T09:15:39.300Z,207.78
2023-05-17T09:16:39.339Z,212.60
2023-05-17T09:17:39.397Z,216.37
2023-05-17T09:18:39.616Z,220.49
2023-05-17T09:19:39.468Z,213.55
2023-05-17T09:20:39.447Z,210.81
2023-05-17T09:21:40.458Z,210.92
2023-05-17T09:22:39.518Z,212.72
2023-05-17T09:23:39.485Z,212.91
2023-05-17T09:24:39.508Z,206.06
2023-05-17T09:25:39.486Z,208.10
2023-05-17T09:26:39.470Z,210.97
2023-05-17T09:27:39.453Z,212.91
2023-05-17T09:28:39.431Z,212.65
2023-05-17T09:29:39.495Z,209.15
2023-05-17T09:30:39.427Z,212.78
2023-05-17T09:31:39.395Z,211.50
2023-05-17T09:32:39.400Z,206.37
2023-05-17T09:33:39.873Z,205.49
2023-05-17T09:34:39.344Z,204.00
2023-05-17T09:35:39.312Z,208.69
2023-05-17T09:36:39.366Z,209.69
2023-05-17T09:37:39.975Z,209.51
2023-05-17T09:38:39.323Z,210.99
2023-05-17T09:39:39.270Z,215.79
2023-05-17T09:40:39.455Z,216.02
2023-05-17T09:41:39.241Z,179.80
2023-05-17T09:42:39.238Z,125.24
2023-05-17T09:43:39.242Z,98.57
2023-05-17T09:44:39.210Z,63.38
2023-05-17T09:45:39.510Z,25.00
2023-05-17T09:46:39.245Z,5.63
2023-05-17T09:47:40.992Z,0.00
2023-05-17T09:48:39.408Z,0.00
2023-05-17T09:49:39.242Z,0.00
2023-05-17T09:50:39.179Z,0.00
2023-05-17T09:51:39.979Z,0.00
2023-05-17T09:52:39.239Z,0.00
2023-05-17T09:53:39.369Z,0.00
2023-05-17T09:54:39.327Z,0.00
2023-05-17T09:55:39.438Z,0.00
2023-05-17T09:56:39.224Z,0.00
2023-05-17T09:57:39.316Z,0.00
2023-05-17T09:58:39.358Z,0.00
2023-05-17T09:59:39.269Z,0.00
2023-05-17T10:00:39.352Z,0.00
2023-05-17T10:01:39.406Z,0.00
2023-05-17T10:02:39.416Z,0.00
2023-05-17T10:03:39.509Z,0.00
2023-05-17T10:04:39.483Z,0.00
2023-05-17T10:05:39.476Z,0.00
2023-05-17T10:06:46.344Z,0.00
2023-05-17T10:07:40.376Z,0.00
2023-05-17T10:08:39.413Z,0.00
2023-05-17T10:09:39.620Z,0.00
2023-05-17T10:10:39.457Z,0.00
2023-05-17T10:11:39.505Z,0.00
2023-05-17T10:12:39.517Z,0.00
2023-05-17T10:13:39.595Z,0.00
2023-05-17T10:14:39.586Z,0.00
2023-05-17T10:15:39.651Z,0.00
2023-05-17T10:16:39.587Z,0.00
2023-05-17T10:17:39.767Z,19.44
2023-05-17T10:18:39.872Z,27.21
2023-05-17T10:19:39.927Z,44.63
2023-05-17T10:20:39.898Z,104.50
2023-05-17T10:21:39.956Z,153.66
2023-05-17T10:22:40.044Z,137.83
2023-05-17T10:23:40.083Z,144.70
2023-05-17T10:24:40.070Z,142.81
2023-05-17T10:25:40.316Z,129.16
2023-05-17T10:26:40.238Z,103.09
2023-05-17T10:27:40.209Z,81.23
2023-05-17T10:28:40.528Z,56.93
2023-05-17T10:29:40.301Z,63.35
2023-05-17T10:30:40.304Z,60.24
2023-05-17T10:31:40.369Z,74.19
2023-05-17T10:32:40.663Z,112.18
2023-05-17T10:33:41.571Z,102.01
2023-05-17T10:34:40.579Z,99.02
2023-05-17T10:35:41.194Z,94.64
2023-05-17T10:36:40.756Z,119.74
2023-05-17T10:37:40.788Z,137.38
2023-05-17T10:38:42.822Z,182.12
2023-05-17T10:39:40.837Z,244.35
2023-05-17T10:40:40.902Z,256.43
2023-05-17T10:41:40.983Z,275.72
2023-05-17T10:42:41.066Z,269.42
2023-05-17T10:43:41.140Z,251.07
2023-05-17T10:44:41.260Z,247.00
2023-05-17T10:45:41.303Z,243.68
2023-05-17T10:46:41.398Z,248.50
2023-05-17T10:47:41.560Z,264.42
2023-05-17T10:48:42.502Z,255.88
2023-05-17T10:49:41.623Z,243.10
2023-05-17T10:50:54.580Z,232.94
2023-05-17T10:51:42.560Z,233.36
2023-05-17T10:52:41.692Z,235.23
2023-05-17T10:53:41.650Z,237.85
2023-05-17T10:54:41.728Z,233.92
2023-05-17T10:55:41.994Z,236.34
2023-05-17T10:56:41.801Z,246.47
2023-05-17T10:57:49.862Z,246.61
2023-05-17T10:58:42.604Z,247.27
2023-05-17T10:59:41.602Z,249.28
2023-05-17T11:00:41.637Z,246.77
2023-05-17T11:01:42.591Z,247.25
2023-05-17T11:02:41.708Z,252.14
2023-05-17T11:03:41.844Z,254.55
2023-05-17T11:04:42.032Z,267.64
2023-05-17T11:05:41.957Z,296.09
2023-05-17T11:06:41.786Z,247.27
2023-05-17T11:07:41.613Z,195.36
2023-05-17T11:08:41.919Z,172.80
2023-05-17T11:09:41.719Z,176.94
2023-05-17T11:10:41.655Z,166.63
2023-05-17T11:11:41.910Z,141.10
2023-05-17T11:12:41.713Z,156.71
2023-05-17T11:13:41.977Z,179.58
2023-05-17T11:14:41.772Z,175.64
2023-05-17T11:15:41.850Z,187.11
2023-05-17T11:16:41.852Z,169.08
2023-05-17T11:17:41.925Z,155.32
2023-05-17T11:18:42.231Z,149.54
2023-05-17T11:19:42.275Z,138.67
2023-05-17T11:20:42.197Z,124.65
2023-05-17T11:21:42.123Z,137.86
2023-05-17T11:22:42.956Z,184.94
2023-05-17T11:23:42.225Z,232.94
2023-05-17T11:24:42.262Z,256.53
2023-05-17T11:25:42.367Z,251.02
2023-05-17T11:26:42.378Z,259.81
2023-05-17T11:27:42.962Z,259.50
2023-05-17T11:28:42.436Z,259.64
2023-05-17T11:29:42.450Z,260.73
2023-05-17T11:30:42.499Z,264.04
2023-05-17T11:31:42.541Z,273.89
2023-05-17T11:32:42.667Z,291.23
2023-05-17T11:33:42.763Z,295.20
2023-05-17T11:34:42.802Z,287.31
2023-05-17T11:35:42.802Z,279.27
2023-05-17T11:36:43.031Z,264.51
2023-05-17T11:37:42.894Z,254.55
2023-05-17T11:38:42.954Z,249.75
2023-05-17T11:39:43.233Z,247.86
2023-05-17T11:40:43.038Z,250.00
2023-05-17T11:41:43.048Z,250.00
2023-05-17T11:42:43.087Z,250.00
2023-05-17T11:43:43.114Z,249.48
2023-05-17T11:44:43.222Z,249.79
2023-05-17T11:45:43.190Z,249.32
2023-05-17T11:46:43.218Z,248.91
2023-05-17T11:47:43.335Z,248.45
2023-05-17T11:48:43.755Z,248.48
2023-05-17T11:49:43.255Z,248.51
2023-05-17T11:50:43.292Z,248.23
2023-05-17T11:51:43.329Z,247.39
2023-05-17T11:52:43.305Z,247.77
2023-05-17T11:53:43.303Z,246.46
2023-05-17T11:54:43.326Z,245.82
2023-05-17T11:55:43.295Z,245.52
2023-05-17T11:56:43.942Z,245.13
2023-05-17T11:57:43.413Z,244.77
2023-05-17T11:58:43.429Z,245.32
2023-05-17T11:59:43.334Z,244.30
2023-05-17T12:00:43.351Z,243.53
2023-05-17T12:01:43.554Z,243.57
2023-05-17T12:02:43.383Z,242.64
2023-05-17T12:03:43.391Z,242.13
2023-05-17T12:04:43.398Z,240.95
2023-05-17T12:05:43.370Z,239.36
2023-05-17T12:06:43.508Z,239.45
2023-05-17T12:07:43.395Z,239.39
2023-05-17T12:08:43.390Z,238.17
2023-05-17T12:09:43.390Z,239.31
2023-05-17T12:10:43.385Z,239.27
2023-05-17T12:11:43.431Z,237.48
2023-05-17T12:12:43.470Z,235.37
2023-05-17T12:13:43.403Z,236.22
2023-05-17T12:14:43.481Z,234.91
2023-05-17T12:15:43.463Z,233.98
2023-05-17T12:16:43.400Z,234.21
2023-05-17T12:17:43.544Z,234.97
2023-05-17T12:18:43.610Z,232.06
2023-05-17T12:19:43.514Z,231.40
2023-05-17T12:20:43.402Z,230.59
2023-05-17T12:21:43.369Z,229.10
2023-05-17T12:22:43.375Z,229.58
2023-05-17T12:23:43.537Z,228.72
2023-05-17T12:24:43.614Z,229.46
2023-05-17T12:25:43.379Z,228.54
2023-05-17T12:26:43.368Z,228.58
2023-05-17T12:27:43.403Z,227.69
2023-05-17T12:28:43.373Z,227.75
2023-05-17T12:29:43.362Z,226.61
2023-05-17T12:30:43.504Z,226.85
2023-05-17T12:31:43.364Z,225.10
2023-05-17T12:32:43.412Z,225.40
2023-05-17T12:33:43.532Z,224.56
2023-05-17T12:34:43.352Z,225.22
2023-05-17T12:35:43.338Z,224.28
2023-05-17T12:36:43.342Z,224.74
2023-05-17T12:37:43.342Z,224.12
2023-05-17T12:38:43.344Z,222.49
2023-05-17T12:39:43.325Z,221.67
2023-05-17T12:40:43.527Z,221.92
2023-05-17T12:41:43.344Z,220.58
2023-05-17T12:42:43.333Z,221.30
2023-05-17T12:43:43.334Z,220.87
2023-05-17T12:44:43.346Z,220.13